createdAt,value
2018-07-01T00:00:21.027Z,101689.95
2018-07-01T00:02:49.388Z,101691.44
2018-07-01T00:05:17.780Z,101690.56
2018-07-01T00:07:46.165Z,101698.20
2018-07-01T00:10:14.533Z,101696.07
2018-07-01T00:12:42.871Z,101699.95
2018-07-01T00:15:11.214Z,101701.09
2018-07-01T00:17:39.559Z,101710.15
2018-07-01T00:20:09.261Z,101710.94
2018-07-01T00:22:38.195Z,101706.49
2018-07-01T00:25:06.723Z,101708.98
2018-07-01T00:27:35.126Z,101706.05
2018-07-01T00:30:03.519Z,101703.53
2018-07-01T00:32:31.854Z,101707.45
2018-07-01T00:35:00.197Z,101705.63
2018-07-01T00:37:28.571Z,101703.13
2018-07-01T00:39:56.922Z,101704.64
2018-07-01T00:42:25.370Z,101707.34
2018-07-01T00:44:53.713Z,101710.04
2018-07-01T00:47:22.090Z,101701.67
2018-07-01T00:49:50.437Z,101708.55
2018-07-01T00:52:18.784Z,101705.59
2018-07-01T00:54:47.114Z,101708.08
2018-07-01T00:57:15.472Z,101707.07
2018-07-01T00:59:43.820Z,101704.23
2018-07-01T01:02:12.301Z,101704.63
2018-07-01T01:04:40.686Z,101708.84
2018-07-01T01:07:09.034Z,101715.43
2018-07-01T01:09:37.402Z,101716.92
2018-07-01T01:12:05.811Z,101707.75
2018-07-01T01:14:34.192Z,101715.32
2018-07-01T01:17:02.607Z,101720.64
2018-07-01T01:19:30.969Z,101717.48
2018-07-01T01:21:59.327Z,101716.17
2018-07-01T01:24:27.709Z,101712.28
2018-07-01T01:26:56.053Z,101708.41
2018-07-01T01:29:24.400Z,101712.33
2018-07-01T01:31:52.740Z,101702.61
2018-07-01T01:34:21.128Z,101705.59
2018-07-01T01:36:49.660Z,101708.06
2018-07-01T01:39:22.047Z,101715.68
2018-07-01T01:41:54.010Z,101716.23
2018-07-01T01:44:25.446Z,101710.77
2018-07-01T01:47:03.266Z,101716.99
2018-07-01T01:49:39.320Z,101718.47
2018-07-01T01:52:10.969Z,101720.48
2018-07-01T01:54:47.332Z,101722.79
2018-07-01T01:57:21.654Z,101724.61
2018-07-01T01:59:54.544Z,101720.20
2018-07-01T02:02:29.161Z,101718.19
2018-07-01T02:05:32.766Z,101715.37
2018-07-01T02:08:04.320Z,101717.34
2018-07-01T02:10:32.656Z,101714.53
2018-07-01T02:13:00.986Z,101721.28
2018-07-01T02:15:34.887Z,101721.41
2018-07-01T02:18:03.241Z,101721.47
2018-07-01T02:20:34.201Z,101722.08
2018-07-01T02:24:05.577Z,101725.84
2018-07-01T02:26:34.037Z,101731.22
2018-07-01T02:29:02.745Z,101725.28
2018-07-01T02:31:31.294Z,101726.79
2018-07-01T02:33:59.636Z,101725.47
2018-07-01T02:36:27.962Z,101724.48
2018-07-01T02:38:56.307Z,101729.72
2018-07-01T02:41:24.634Z,101724.57
2018-07-01T02:43:52.976Z,101729.20
2018-07-01T02:46:21.325Z,101737.41
2018-07-01T02:48:49.656Z,101738.31
2018-07-01T02:51:17.969Z,101741.38
2018-07-01T02:53:46.358Z,101743.85
2018-07-01T02:56:14.653Z,101736.66
2018-07-01T02:58:43.017Z,101740.81
2018-07-01T03:01:11.347Z,101743.33
2018-07-01T03:03:39.675Z,101742.14
2018-07-01T03:06:08.010Z,101749.19
2018-07-01T03:08:36.331Z,101749.38
2018-07-01T03:11:04.668Z,101746.78
2018-07-01T03:13:32.983Z,101747.38
2018-07-01T03:16:01.349Z,101753.70
2018-07-01T03:18:29.812Z,101752.57
2018-07-01T03:20:58.161Z,101752.45
2018-07-01T03:23:26.759Z,101751.51
2018-07-01T03:25:55.086Z,101748.05
2018-07-01T03:28:23.473Z,101746.12
2018-07-01T03:30:51.809Z,101744.77
2018-07-01T03:33:20.152Z,101754.16
2018-07-01T03:35:48.498Z,101757.73
2018-07-01T03:38:16.878Z,101749.84
2018-07-01T03:40:45.247Z,101751.98
2018-07-01T03:43:13.567Z,101758.98
2018-07-01T03:45:41.914Z,101757.05
2018-07-01T03:48:10.261Z,101757.45
2018-07-01T03:50:38.635Z,101761.49
2018-07-01T03:53:07.002Z,101763.72
2018-07-01T03:55:35.384Z,101757.96
2018-07-01T03:58:03.756Z,101758.80
2018-07-01T04:00:32.119Z,101758.11
2018-07-01T04:03:00.503Z,101757.39
2018-07-01T04:05:28.879Z,101763.36
2018-07-01T04:07:57.214Z,101772.39
2018-07-01T04:10:25.559Z,101770.68
2018-07-01T04:12:53.915Z,101775.84
2018-07-01T04:15:22.295Z,101777.27
2018-07-01T04:17:50.640Z,101773.34
2018-07-01T04:20:18.984Z,101774.03
2018-07-01T04:22:47.399Z,101775.44
2018-07-01T04:25:15.776Z,101778.95
2018-07-01T04:27:44.115Z,101779.52
2018-07-01T04:30:12.466Z,101781.05
2018-07-01T04:32:40.811Z,101778.27
2018-07-01T04:35:09.223Z,101779.39
2018-07-01T04:37:37.570Z,101778.98
2018-07-01T04:40:05.950Z,101785.35
2018-07-01T04:42:34.299Z,101784.52
2018-07-01T04:45:02.667Z,101788.10
2018-07-01T04:47:31.052Z,101785.33
2018-07-01T04:49:59.396Z,101789.89
2018-07-01T04:52:27.775Z,101784.93
2018-07-01T04:54:56.169Z,101793.43
2018-07-01T04:57:24.491Z,101789.86
2018-07-01T04:59:53.692Z,101795.34
2018-07-01T05:02:22.095Z,101796.37
2018-07-01T05:04:50.458Z,101797.39
2018-07-01T05:07:18.842Z,101789.16
2018-07-01T05:09:47.208Z,101795.12
2018-07-01T05:12:15.557Z,101797.41
2018-07-01T05:14:44.002Z,101804.44
2018-07-01T05:17:12.401Z,101803.69
2018-07-01T05:19:40.767Z,101801.75
2018-07-01T05:22:09.145Z,101791.74
2018-07-01T05:24:37.458Z,101792.75
2018-07-01T05:27:05.897Z,101790.89
2018-07-01T05:29:34.278Z,101794.69
2018-07-01T05:32:02.592Z,101793.06
2018-07-01T05:34:30.933Z,101784.94
2018-07-01T05:36:59.317Z,101783.05
2018-07-01T05:39:27.629Z,101786.75
2018-07-01T05:41:55.973Z,101788.47
2018-07-01T05:44:24.308Z,101793.25
2018-07-01T05:46:52.624Z,101785.16
2018-07-01T05:49:20.947Z,101790.47
2018-07-01T05:51:49.318Z,101791.41
2018-07-01T05:54:17.683Z,101787.14
2018-07-01T05:56:46.044Z,101788.41
2018-07-01T05:59:14.388Z,101786.89
2018-07-01T06:01:42.735Z,101787.14
2018-07-01T06:04:11.103Z,101791.58
2018-07-01T06:06:39.484Z,101790.60
2018-07-01T06:09:09.708Z,101785.58
2018-07-01T06:11:38.056Z,101790.36
2018-07-01T06:14:06.573Z,101789.98
2018-07-01T06:16:34.904Z,101792.02
2018-07-01T06:19:03.539Z,101789.65
2018-07-01T06:21:31.907Z,101791.44
2018-07-01T06:24:00.282Z,101789.78
2018-07-01T06:26:28.612Z,101779.02
2018-07-01T06:28:56.950Z,101778.80
2018-07-01T06:31:25.300Z,101782.69
2018-07-01T06:33:53.632Z,101785.54
2018-07-01T06:36:21.991Z,101782.14
2018-07-01T06:38:50.352Z,101776.80
2018-07-01T06:41:18.679Z,101775.63
2018-07-01T06:43:47.028Z,101768.17
2018-07-01T06:46:15.424Z,101772.26
2018-07-01T06:48:43.780Z,101773.13
2018-07-01T06:51:12.128Z,101766.22
2018-07-01T06:53:40.458Z,101770.13
2018-07-01T06:56:08.805Z,101771.50
2018-07-01T06:58:37.148Z,101768.38
2018-07-01T07:01:05.732Z,101773.27
2018-07-01T07:03:34.051Z,101775.31
2018-07-01T07:06:02.424Z,101773.58
2018-07-01T07:08:30.754Z,101775.77
2018-07-01T07:10:59.127Z,101774.59
2018-07-01T07:13:27.456Z,101774.69
2018-07-01T07:15:55.855Z,101773.67
2018-07-01T07:18:24.234Z,101767.70
2018-07-01T07:20:52.574Z,101777.28
2018-07-01T07:23:21.079Z,101773.86
2018-07-01T07:25:49.526Z,101764.62
2018-07-01T07:28:17.869Z,101760.52
2018-07-01T07:30:46.220Z,101760.03
2018-07-01T07:33:14.589Z,101752.48
2018-07-01T07:35:42.975Z,101756.83
2018-07-01T07:38:11.421Z,101747.79
2018-07-01T07:40:39.785Z,101746.50
2018-07-01T07:43:08.129Z,101743.81
2018-07-01T07:45:36.540Z,101745.80
2018-07-01T07:48:04.906Z,101739.23
2018-07-01T07:50:33.299Z,101738.09
2018-07-01T07:53:01.643Z,101749.63
2018-07-01T07:55:30.059Z,101738.06
2018-07-01T07:57:58.410Z,101739.42
2018-07-01T08:00:26.908Z,101744.33
2018-07-01T08:02:55.335Z,101746.49
2018-07-01T08:05:23.693Z,101748.69
2018-07-01T08:07:52.039Z,101752.31
2018-07-01T08:10:20.452Z,101745.79
2018-07-01T08:12:48.885Z,101741.65
2018-07-01T08:15:17.206Z,101742.36
2018-07-01T08:17:45.628Z,101733.82
2018-07-01T08:20:14.085Z,101740.23
2018-07-01T08:22:42.448Z,101725.50
2018-07-01T08:25:10.775Z,101724.06
2018-07-01T08:27:39.246Z,101727.59
2018-07-01T08:30:07.642Z,101723.96
2018-07-01T08:32:35.984Z,101716.45
2018-07-01T08:35:04.372Z,101728.02
2018-07-01T08:37:32.824Z,101727.50
2018-07-01T08:40:01.306Z,101721.98
2018-07-01T08:42:31.774Z,101723.51
2018-07-01T08:45:01.310Z,101728.73
2018-07-01T08:47:30.079Z,101729.16
2018-07-01T08:49:58.493Z,101721.72
2018-07-01T08:52:27.026Z,101724.54
2018-07-01T08:54:55.423Z,101724.64
2018-07-01T08:57:24.392Z,101719.08
2018-07-01T08:59:52.786Z,101707.98
2018-07-01T09:02:21.891Z,101710.38
2018-07-01T09:04:50.292Z,101704.80
2018-07-01T09:07:19.215Z,101705.70
2018-07-01T09:09:47.826Z,101706.88
2018-07-01T09:12:16.159Z,101725.47
2018-07-01T09:14:44.490Z,101717.93
2018-07-01T09:17:12.865Z,101712.77
2018-07-01T09:19:41.187Z,101707.14
2018-07-01T09:22:09.529Z,101710.63
2018-07-01T09:24:37.884Z,101700.41
2018-07-01T09:27:06.241Z,101715.03
2018-07-01T09:29:34.620Z,101703.19
2018-07-01T09:32:02.998Z,101700.80
2018-07-01T09:34:31.387Z,101701.14
2018-07-01T09:36:59.712Z,101694.78
2018-07-01T09:39:28.056Z,101701.05
2018-07-01T09:41:56.792Z,101699.79
2018-07-01T09:44:25.227Z,101696.41
2018-07-01T09:46:53.612Z,101712.63
2018-07-01T09:49:21.960Z,101707.87
2018-07-01T09:51:50.305Z,101715.88
2018-07-01T09:54:18.722Z,101712.95
2018-07-01T09:56:47.089Z,101714.78
2018-07-01T09:59:15.527Z,101701.60
2018-07-01T10:01:43.961Z,101697.59
2018-07-01T10:04:12.293Z,101695.21
2018-07-01T10:06:40.637Z,101714.64
2018-07-01T10:09:10.298Z,101707.64
2018-07-01T10:11:38.778Z,101702.10
2018-07-01T10:14:07.970Z,101695.52
2018-07-01T10:16:36.487Z,101696.61
2018-07-01T10:19:05.103Z,101694.45
2018-07-01T10:21:33.456Z,101699.39
2018-07-01T10:24:01.815Z,101684.73
2018-07-01T10:26:30.259Z,101688.45
2018-07-01T10:29:06.006Z,101683.34
2018-07-01T10:31:35.092Z,101693.70
2018-07-01T10:34:03.674Z,101684.66
2018-07-01T10:36:32.043Z,101676.18
2018-07-01T10:39:00.404Z,101685.80
2018-07-01T10:41:28.772Z,101675.03
2018-07-01T10:43:58.174Z,101675.68
2018-07-01T10:46:26.538Z,101675.26
2018-07-01T10:48:55.384Z,101670.56
2018-07-01T10:51:23.771Z,101678.86
2018-07-01T10:53:52.131Z,101676.09
2018-07-01T10:56:20.690Z,101672.96
2018-07-01T10:58:49.022Z,101671.20
2018-07-01T11:01:17.377Z,101679.81
2018-07-01T11:03:45.723Z,101677.39
2018-07-01T11:06:14.189Z,101670.34
2018-07-01T11:08:42.463Z,101671.55
2018-07-01T11:11:10.788Z,101670.61
2018-07-01T11:13:39.240Z,101675.55
2018-07-01T11:16:07.652Z,101671.09
2018-07-01T11:18:35.979Z,101657.23
2018-07-01T11:21:04.345Z,101656.63
2018-07-01T11:23:32.780Z,101656.72
2018-07-01T11:26:01.496Z,101654.49
2018-07-01T11:28:29.980Z,101660.98
2018-07-01T11:30:58.408Z,101652.19
2018-07-01T11:33:27.296Z,101666.72
2018-07-01T11:35:55.780Z,101658.57
2018-07-01T11:38:24.159Z,101651.33
2018-07-01T11:40:52.565Z,101638.61
2018-07-01T11:43:20.917Z,101648.86
2018-07-01T11:45:49.396Z,101643.39
2018-07-01T11:48:17.801Z,101644.01
2018-07-01T11:50:46.184Z,101643.77
2018-07-01T11:53:14.534Z,101649.35
2018-07-01T11:55:42.898Z,101650.09
2018-07-01T11:58:11.266Z,101643.36
2018-07-01T12:00:39.644Z,101639.54
2018-07-01T12:03:08.011Z,101633.92
2018-07-01T12:05:36.503Z,101636.28
2018-07-01T12:08:05.134Z,101627.58
2018-07-01T12:10:33.495Z,101626.95
2018-07-01T12:13:01.826Z,101628.95
2018-07-01T12:15:30.185Z,101629.20
2018-07-01T12:17:58.529Z,101629.56
2018-07-01T12:20:26.888Z,101633.31
2018-07-01T12:22:55.255Z,101627.97
2018-07-01T12:25:24.575Z,101634.78
2018-07-01T12:27:52.919Z,101629.81
2018-07-01T12:30:21.258Z,101614.04
2018-07-01T12:32:49.586Z,101613.79
2018-07-01T12:35:17.936Z,101611.03
2018-07-01T12:37:46.280Z,101618.98
2018-07-01T12:40:14.621Z,101613.49
2018-07-01T12:42:42.969Z,101611.55
2018-07-01T12:45:11.309Z,101611.38
2018-07-01T12:47:39.698Z,101611.53
2018-07-01T12:50:08.040Z,101609.05
2018-07-01T12:52:36.383Z,101613.16
2018-07-01T12:55:04.742Z,101619.23
2018-07-01T12:57:33.107Z,101618.66
2018-07-01T13:00:01.487Z,101608.67
2018-07-01T13:02:29.848Z,101612.52
2018-07-01T13:04:58.230Z,101603.33
2018-07-01T13:07:26.613Z,101601.19
2018-07-01T13:09:55.071Z,101608.56
2018-07-01T13:12:23.488Z,101595.82
2018-07-01T13:14:51.845Z,101599.27
2018-07-01T13:17:20.245Z,101597.42
2018-07-01T13:19:48.639Z,101594.38
2018-07-01T13:22:17.102Z,101599.72
2018-07-01T13:24:45.507Z,101595.75
2018-07-01T13:27:14.024Z,101597.36
2018-07-01T13:29:42.447Z,101599.50
2018-07-01T13:32:10.919Z,101598.53
2018-07-01T13:34:39.887Z,101595.66
2018-07-01T13:37:08.335Z,101598.66
2018-07-01T13:39:36.717Z,101594.50
2018-07-01T13:42:05.222Z,101596.27
2018-07-01T13:44:33.646Z,101597.27
2018-07-01T13:47:02.021Z,101591.56
2018-07-01T13:49:30.423Z,101590.22
2018-07-01T13:51:58.921Z,101578.55
2018-07-01T13:54:27.368Z,101578.78
2018-07-01T13:56:55.814Z,101585.84
2018-07-01T13:59:24.173Z,101597.16
2018-07-01T14:01:52.538Z,101595.73
2018-07-01T14:04:21.021Z,101598.17
2018-07-01T14:06:49.434Z,101603.19
2018-07-01T14:09:17.826Z,101593.31
2018-07-01T14:11:46.263Z,101598.82
2018-07-01T14:14:14.677Z,101602.42
2018-07-01T14:16:43.129Z,101592.31
2018-07-01T14:19:12.048Z,101592.03
2018-07-01T14:21:40.427Z,101593.89
2018-07-01T14:24:08.800Z,101603.23
2018-07-01T14:26:37.195Z,101601.06
2018-07-01T14:29:05.703Z,101598.59
2018-07-01T14:31:34.099Z,101593.49
2018-07-01T14:34:02.528Z,101605.33
2018-07-01T14:36:30.939Z,101589.47
2018-07-01T14:38:59.348Z,101601.50
2018-07-01T14:41:27.697Z,101603.91
2018-07-01T14:43:56.050Z,101595.31
2018-07-01T14:46:24.430Z,101596.59
2018-07-01T14:48:52.834Z,101595.29
2018-07-01T14:51:21.235Z,101597.27
2018-07-01T14:53:49.661Z,101598.03
2018-07-01T14:56:18.102Z,101593.22
2018-07-01T14:58:46.588Z,101591.80
2018-07-01T15:01:16.112Z,101580.64
2018-07-01T15:03:44.536Z,101581.96
2018-07-01T15:06:12.915Z,101564.61
2018-07-01T15:08:41.299Z,101558.52
2018-07-01T15:11:09.834Z,101559.02
2018-07-01T15:13:38.305Z,101569.17
2018-07-01T15:16:06.683Z,101565.90
2018-07-01T15:18:35.114Z,101559.30
2018-07-01T15:21:03.505Z,101562.76
2018-07-01T15:23:31.946Z,101562.84
2018-07-01T15:26:00.338Z,101556.88
2018-07-01T15:28:28.724Z,101556.64
2018-07-01T15:30:57.146Z,101554.28
2018-07-01T15:33:25.580Z,101549.05
2018-07-01T15:35:54.825Z,101555.42
2018-07-01T15:38:23.305Z,101548.96
2018-07-01T15:40:51.697Z,101554.65
2018-07-01T15:43:20.051Z,101555.77
2018-07-01T15:45:48.973Z,101551.98
2018-07-01T15:48:17.381Z,101552.70
2018-07-01T15:50:45.775Z,101549.74
2018-07-01T15:53:14.171Z,101557.44
2018-07-01T15:55:42.695Z,101549.73
2018-07-01T15:58:11.157Z,101543.62
2018-07-01T16:00:39.534Z,101543.13
2018-07-01T16:03:08.139Z,101536.53
2018-07-01T16:05:36.574Z,101540.99
2018-07-01T16:08:05.243Z,101538.95
2018-07-01T16:10:33.680Z,101542.95
2018-07-01T16:13:02.028Z,101534.22
2018-07-01T16:15:30.443Z,101535.22
2018-07-01T16:17:58.864Z,101538.22
2018-07-01T16:20:27.216Z,101521.02
2018-07-01T16:22:55.609Z,101516.43
2018-07-01T16:25:29.387Z,101521.94
2018-07-01T16:28:03.213Z,101521.58
2018-07-01T16:30:31.639Z,101527.19
2018-07-01T16:32:59.995Z,101524.09
2018-07-01T16:35:28.351Z,101523.79
2018-07-01T16:37:56.709Z,101518.27
2018-07-01T16:40:25.076Z,101526.58
2018-07-01T16:42:53.422Z,101517.75
2018-07-01T16:45:21.827Z,101528.37
2018-07-01T16:47:50.164Z,101519.83
2018-07-01T16:50:18.969Z,101518.83
2018-07-01T16:52:47.494Z,101512.66
2018-07-01T16:55:16.542Z,101517.63
2018-07-01T16:57:44.982Z,101516.81
2018-07-01T17:00:13.438Z,101514.98
2018-07-01T17:02:41.859Z,101523.04
2018-07-01T17:05:10.326Z,101517.27
2018-07-01T17:07:38.629Z,101516.97
2018-07-01T17:10:06.994Z,101526.95
2018-07-01T17:12:35.355Z,101529.31
2018-07-01T17:15:04.400Z,101528.31
2018-07-01T17:17:33.495Z,101527.58
2018-07-01T17:20:02.081Z,101528.28
2018-07-01T17:22:30.493Z,101525.28
2018-07-01T17:24:58.916Z,101524.25
2018-07-01T17:27:27.387Z,101520.38
2018-07-01T17:29:55.818Z,101527.96
2018-07-01T17:32:29.703Z,101527.80
2018-07-01T17:34:58.123Z,101523.68
2018-07-01T17:37:26.900Z,101530.16
2018-07-01T17:39:55.494Z,101524.92
2018-07-01T17:42:23.916Z,101520.45
2018-07-01T17:44:52.730Z,101528.84
2018-07-01T17:47:21.196Z,101524.51
2018-07-01T17:49:49.604Z,101526.95
2018-07-01T17:52:18.569Z,101534.09
2018-07-01T17:54:47.119Z,101534.97
2018-07-01T17:57:15.549Z,101533.65
2018-07-01T17:59:44.002Z,101543.80
2018-07-01T18:02:13.074Z,101546.37
2018-07-01T18:04:41.634Z,101542.28
2018-07-01T18:07:10.113Z,101540.26
2018-07-01T18:09:38.501Z,101542.77
2018-07-01T18:12:07.207Z,101548.05
2018-07-01T18:14:35.566Z,101552.18
2018-07-01T18:17:03.947Z,101548.42
2018-07-01T18:19:32.323Z,101554.45
2018-07-01T18:22:12.588Z,101547.75
2018-07-01T18:24:53.946Z,101546.02
2018-07-01T18:26:57.584Z,101546.52
2018-07-01T18:29:25.911Z,101555.80
2018-07-01T18:31:54.291Z,101551.09
2018-07-01T18:34:22.689Z,101554.42
2018-07-01T18:36:51.065Z,101560.11
2018-07-01T18:39:19.495Z,101558.74
2018-07-01T18:41:48.163Z,101558.39
2018-07-01T18:44:16.630Z,101563.95
2018-07-01T18:46:45.069Z,101551.46
2018-07-01T18:49:13.377Z,101560.92
2018-07-01T18:51:42.400Z,101556.84
2018-07-01T18:54:10.742Z,101554.12
2018-07-01T18:56:39.212Z,101556.84
2018-07-01T18:59:07.600Z,101559.64
2018-07-01T19:01:35.945Z,101554.52
2018-07-01T19:04:04.338Z,101558.13
2018-07-01T19:06:33.105Z,101561.75
2018-07-01T19:09:01.431Z,101563.27
2018-07-01T19:11:29.989Z,101560.45
2018-07-01T19:13:58.321Z,101563.29
2018-07-01T19:16:26.666Z,101561.17
2018-07-01T19:18:55.155Z,101553.78
2018-07-01T19:21:23.632Z,101564.09
2018-07-01T19:23:52.502Z,101563.91
2018-07-01T19:26:20.848Z,101568.97
2018-07-01T19:28:49.341Z,101571.50
2018-07-01T19:31:17.706Z,101569.38
2018-07-01T19:33:46.072Z,101569.27
2018-07-01T19:36:14.506Z,101576.55
2018-07-01T19:38:42.834Z,101573.27
2018-07-01T19:41:11.181Z,101574.70
2018-07-01T19:43:39.828Z,101572.47
2018-07-01T19:46:08.306Z,101578.89
2018-07-01T19:48:37.005Z,101575.00
2018-07-01T19:51:05.691Z,101585.00
2018-07-01T19:53:34.163Z,101587.03
2018-07-01T19:56:02.615Z,101584.90
2018-07-01T19:58:30.995Z,101582.53
2018-07-01T20:00:59.354Z,101585.25
2018-07-01T20:03:27.750Z,101582.41
2018-07-01T20:05:56.115Z,101581.54
2018-07-01T20:08:24.520Z,101579.40
2018-07-01T20:10:52.902Z,101582.50
2018-07-01T20:13:21.372Z,101581.15
2018-07-01T20:15:49.859Z,101574.92
2018-07-01T20:18:18.338Z,101572.28
2018-07-01T20:20:46.726Z,101578.97
2018-07-01T20:23:15.092Z,101576.92
2018-07-01T20:25:43.437Z,101581.58
2018-07-01T20:28:11.951Z,101580.86
2018-07-01T20:30:40.293Z,101588.03
2018-07-01T20:33:08.659Z,101577.94
2018-07-01T20:35:37.014Z,101586.19
2018-07-01T20:38:05.382Z,101573.17
2018-07-01T20:40:33.750Z,101579.16
2018-07-01T20:43:02.150Z,101585.08
2018-07-01T20:45:30.611Z,101578.29
2018-07-01T20:47:58.961Z,101577.59
2018-07-01T20:50:27.338Z,101586.61
2018-07-01T20:52:55.686Z,101583.68
2018-07-01T20:55:24.063Z,101588.41
2018-07-01T20:57:52.401Z,101582.22
2018-07-01T21:00:22.021Z,101585.80
2018-07-01T21:02:50.351Z,101589.83
2018-07-01T21:05:18.693Z,101592.71
2018-07-01T21:07:47.056Z,101591.70
2018-07-01T21:10:15.392Z,101594.19
2018-07-01T21:12:43.786Z,101595.98
2018-07-01T21:15:12.152Z,101591.59
2018-07-01T21:17:40.559Z,101594.48
2018-07-01T21:20:09.072Z,101590.61
2018-07-01T21:22:37.422Z,101597.88
2018-07-01T21:25:05.842Z,101602.76
2018-07-01T21:27:34.181Z,101599.78
2018-07-01T21:30:02.596Z,101602.66
2018-07-01T21:32:30.941Z,101597.50
2018-07-01T21:34:59.326Z,101603.99
2018-07-01T21:37:27.703Z,101601.70
2018-07-01T21:39:56.080Z,101605.12
2018-07-01T21:42:24.466Z,101601.27
2018-07-01T21:44:52.860Z,101605.62
2018-07-01T21:47:21.248Z,101603.06
2018-07-01T21:49:49.641Z,101603.11
2018-07-01T21:52:18.015Z,101602.33
2018-07-01T21:54:47.324Z,101601.62
2018-07-01T21:57:15.907Z,101598.36
2018-07-01T21:59:44.273Z,101598.42
2018-07-01T22:02:12.690Z,101598.52
2018-07-01T22:04:41.042Z,101597.16
2018-07-01T22:07:09.412Z,101602.20
2018-07-01T22:09:37.794Z,101597.27
2018-07-01T22:12:17.537Z,101592.33
2018-07-01T22:14:57.247Z,101591.36
2018-07-01T22:17:25.656Z,101590.26
2018-07-01T22:19:54.036Z,101589.55
2018-07-01T22:22:22.401Z,101596.48
2018-07-01T22:24:50.861Z,101590.83
2018-07-01T22:27:19.243Z,101589.09
2018-07-01T22:29:47.622Z,101596.59
2018-07-01T22:32:15.971Z,101589.44
2018-07-01T22:34:44.348Z,101595.71
2018-07-01T22:37:12.695Z,101596.67
2018-07-01T22:39:41.042Z,101591.73
2018-07-01T22:42:09.379Z,101601.55
2018-07-01T22:44:37.727Z,101596.81
2018-07-01T22:47:06.092Z,101593.00
2018-07-01T22:49:34.450Z,101597.79
2018-07-01T22:52:02.837Z,101594.84
2018-07-01T22:54:31.189Z,101595.87
2018-07-01T22:56:59.588Z,101597.71
2018-07-01T22:59:27.971Z,101596.92
2018-07-01T23:03:07.345Z,101594.86
2018-07-01T23:05:35.761Z,101596.98
2018-07-01T23:08:04.211Z,101594.38
2018-07-01T23:10:32.890Z,101600.90
2018-07-01T23:13:01.575Z,101599.45
2018-07-01T23:15:30.056Z,101603.36
2018-07-01T23:17:58.441Z,101592.15
2018-07-01T23:20:27.008Z,101595.16
2018-07-01T23:22:55.505Z,101591.97
2018-07-01T23:25:23.885Z,101582.58
2018-07-01T23:27:52.431Z,101585.83
2018-07-01T23:30:20.900Z,101589.55
2018-07-01T23:32:49.270Z,101586.45
2018-07-01T23:35:17.669Z,101589.16
2018-07-01T23:37:46.125Z,101587.70
2018-07-01T23:40:14.522Z,101589.00
2018-07-01T23:42:43.268Z,101589.06
2018-07-01T23:45:13.788Z,101588.37
2018-07-01T23:47:42.352Z,101594.16
2018-07-01T23:50:10.702Z,101586.34
2018-07-01T23:52:39.131Z,101577.84
2018-07-01T23:55:08.018Z,101582.66
2018-07-01T23:57:36.431Z,101581.11
